ATV451 EDNY-EDDS
Flight info
| Callsign | ATV451 |
|---|---|
| Flight time | 0h 20m |
| Altitude | 14000 |
| Route | ALAGO1W ALAGO Z4 ARSUT T125 REUTL REUTL5A |
| Aircraft | DH8D/M-SDE2E3FGRY/H |
Departure
| Time | 2026-05-09 05:09 |
|---|---|
| Airport | Bodensee Airport Friedrichshafen (EDNY) |
Arrival
| Time | 2026-05-09 05:29 |
|---|---|
| Airport | Stuttgart Airport (EDDS) |
| Time | Latitude | Longitude | Altitude | Speed | Heading |
|---|---|---|---|---|---|
| 2026-05-09 04:54 | 47.67312 | 9.52247 | 1366 ft | 0 kts | 218° |
| 2026-05-09 05:05 | 47.67312 | 9.52246 | 1365 ft | 0 kts | 218° |
| 2026-05-09 05:05 | 47.67316 | 9.52230 | 1366 ft | 3 kts | 322° |
| 2026-05-09 05:05 | 47.67364 | 9.52237 | 1366 ft | 11 kts | 43° |
| 2026-05-09 05:06 | 47.67407 | 9.52328 | 1367 ft | 10 kts | 50° |
| 2026-05-09 05:06 | 47.67467 | 9.52331 | 1367 ft | 8 kts | 322° |
| 2026-05-09 05:06 | 47.67473 | 9.52324 | 1367 ft | 0 kts | 317° |
| 2026-05-09 05:07 | 47.67482 | 9.52310 | 1367 ft | 9 kts | 311° |
| 2026-05-09 05:07 | 47.67518 | 9.52224 | 1367 ft | 10 kts | 299° |
| 2026-05-09 05:07 | 47.67518 | 9.52147 | 1367 ft | 0 kts | 241° |
| 2026-05-09 05:08 | 47.67512 | 9.52130 | 1367 ft | 22 kts | 241° |
| 2026-05-09 05:08 | 47.67222 | 9.51383 | 1360 ft | 134 kts | 241° |
| 2026-05-09 05:09 | 47.66707 | 9.50003 | 1798 ft | 171 kts | 241° |
| 2026-05-09 05:09 | 47.66088 | 9.48354 | 2545 ft | 192 kts | 240° |
| 2026-05-09 05:09 | 47.65447 | 9.46684 | 3597 ft | 195 kts | 239° |
| 2026-05-09 05:09 | 47.64791 | 9.44980 | 4686 ft | 195 kts | 240° |
| 2026-05-09 05:10 | 47.64126 | 9.43257 | 5595 ft | 197 kts | 240° |
| 2026-05-09 05:10 | 47.63448 | 9.41486 | 6499 ft | 199 kts | 244° |
| 2026-05-09 05:10 | 47.63190 | 9.39546 | 7229 ft | 207 kts | 281° |
| 2026-05-09 05:10 | 47.63996 | 9.37815 | 7881 ft | 214 kts | 329° |
| 2026-05-09 05:11 | 47.65456 | 9.37468 | 8595 ft | 222 kts | 10° |
| 2026-05-09 05:11 | 47.66943 | 9.38143 | 9383 ft | 229 kts | 18° |
| 2026-05-09 05:11 | 47.68434 | 9.38965 | 10146 ft | 236 kts | 19° |
| 2026-05-09 05:11 | 47.69965 | 9.39872 | 10977 ft | 239 kts | 21° |
| 2026-05-09 05:12 | 47.71497 | 9.40822 | 11805 ft | 243 kts | 21° |
| 2026-05-09 05:12 | 47.73038 | 9.41804 | 12625 ft | 246 kts | 22° |
| 2026-05-09 05:12 | 47.74605 | 9.42826 | 13409 ft | 249 kts | 22° |
| 2026-05-09 05:12 | 47.76228 | 9.43897 | 13884 ft | 266 kts | 22° |
| 2026-05-09 05:13 | 47.77973 | 9.45059 | 14045 ft | 291 kts | 22° |
| 2026-05-09 05:13 | 47.79952 | 9.46069 | 14052 ft | 310 kts | 7° |
| 2026-05-09 05:13 | 47.82135 | 9.45792 | 14119 ft | 320 kts | 346° |
| 2026-05-09 05:13 | 47.84328 | 9.44967 | 14106 ft | 328 kts | 343° |
| 2026-05-09 05:14 | 47.86536 | 9.44114 | 14114 ft | 333 kts | 343° |
| 2026-05-09 05:14 | 47.88805 | 9.43244 | 14094 ft | 338 kts | 343° |
| 2026-05-09 05:14 | 47.91090 | 9.42379 | 14078 ft | 338 kts | 344° |
| 2026-05-09 05:14 | 47.93378 | 9.41520 | 14090 ft | 339 kts | 344° |
| 2026-05-09 05:15 | 47.95672 | 9.40664 | 14084 ft | 341 kts | 344° |
| 2026-05-09 05:15 | 47.97976 | 9.39809 | 14071 ft | 341 kts | 344° |
| 2026-05-09 05:15 | 48.00247 | 9.38969 | 14067 ft | 336 kts | 344° |
| 2026-05-09 05:15 | 48.02493 | 9.38138 | 14078 ft | 332 kts | 344° |
| 2026-05-09 05:16 | 48.04735 | 9.37310 | 14079 ft | 329 kts | 344° |
| 2026-05-09 05:16 | 48.06927 | 9.36500 | 14077 ft | 327 kts | 344° |
| 2026-05-09 05:16 | 48.09146 | 9.35681 | 14079 ft | 326 kts | 344° |
| 2026-05-09 05:16 | 48.11352 | 9.34867 | 14081 ft | 324 kts | 343° |
| 2026-05-09 05:17 | 48.13553 | 9.34055 | 14081 ft | 324 kts | 343° |
| 2026-05-09 05:17 | 48.15727 | 9.33262 | 14080 ft | 324 kts | 344° |
| 2026-05-09 05:17 | 48.17968 | 9.33035 | 14092 ft | 326 kts | 1° |
| 2026-05-09 05:17 | 48.20237 | 9.33385 | 14085 ft | 327 kts | 4° |
| 2026-05-09 05:18 | 48.22506 | 9.33768 | 14083 ft | 327 kts | 4° |
| 2026-05-09 05:18 | 48.24781 | 9.34154 | 14083 ft | 327 kts | 4° |
| 2026-05-09 05:18 | 48.27023 | 9.34532 | 14087 ft | 327 kts | 4° |
| 2026-05-09 05:18 | 48.29299 | 9.34912 | 14013 ft | 330 kts | 4° |
| 2026-05-09 05:19 | 48.31578 | 9.35288 | 13580 ft | 332 kts | 4° |
| 2026-05-09 05:19 | 48.33861 | 9.35662 | 13112 ft | 331 kts | 4° |
| 2026-05-09 05:19 | 48.36171 | 9.35737 | 12498 ft | 330 kts | 349° |
| 2026-05-09 05:19 | 48.38218 | 9.34386 | 12094 ft | 319 kts | 321° |
| 2026-05-09 05:20 | 48.39800 | 9.32151 | 11680 ft | 315 kts | 312° |
| 2026-05-09 05:20 | 48.41323 | 9.29794 | 11228 ft | 314 kts | 312° |
| 2026-05-09 05:20 | 48.42846 | 9.27434 | 10774 ft | 313 kts | 312° |
| 2026-05-09 05:20 | 48.44350 | 9.25114 | 10329 ft | 310 kts | 312° |
| 2026-05-09 05:21 | 48.45860 | 9.22797 | 9883 ft | 308 kts | 312° |
| 2026-05-09 05:21 | 48.47338 | 9.20536 | 9444 ft | 306 kts | 313° |
| 2026-05-09 05:21 | 48.48823 | 9.18270 | 8996 ft | 293 kts | 313° |
| 2026-05-09 05:21 | 48.50198 | 9.16153 | 8586 ft | 277 kts | 311° |
| 2026-05-09 05:22 | 48.51218 | 9.13781 | 8181 ft | 269 kts | 294° |
| 2026-05-09 05:22 | 48.51963 | 9.11216 | 7785 ft | 265 kts | 292° |
| 2026-05-09 05:22 | 48.52691 | 9.08660 | 7382 ft | 263 kts | 292° |
| 2026-05-09 05:22 | 48.53395 | 9.06161 | 6976 ft | 257 kts | 292° |
| 2026-05-09 05:23 | 48.54069 | 9.03738 | 6564 ft | 248 kts | 292° |
| 2026-05-09 05:23 | 48.54722 | 9.01360 | 6149 ft | 242 kts | 292° |
| 2026-05-09 05:23 | 48.55457 | 8.99089 | 5726 ft | 239 kts | 305° |
| 2026-05-09 05:23 | 48.56703 | 8.97551 | 5308 ft | 232 kts | 335° |
| 2026-05-09 05:24 | 48.58227 | 8.96976 | 4911 ft | 225 kts | 351° |
| 2026-05-09 05:24 | 48.59750 | 8.96592 | 4508 ft | 221 kts | 351° |
| 2026-05-09 05:24 | 48.59860 | 8.96563 | 4478 ft | 221 kts | 351° |
| 2026-05-09 05:24 | 48.61359 | 8.96197 | 4148 ft | 210 kts | 356° |
| 2026-05-09 05:25 | 48.62701 | 8.96608 | 4026 ft | 191 kts | 32° |
| 2026-05-09 05:25 | 48.63759 | 8.97832 | 4022 ft | 196 kts | 41° |
| 2026-05-09 05:25 | 48.65509 | 9.00921 | 3956 ft | 205 kts | 85° |
| 2026-05-09 05:26 | 48.65548 | 9.03058 | 3707 ft | 197 kts | 86° |
| 2026-05-09 05:26 | 48.65805 | 9.04997 | 3369 ft | 181 kts | 76° |
| 2026-05-09 05:26 | 48.66107 | 9.06801 | 3152 ft | 171 kts | 78° |
| 2026-05-09 05:26 | 48.66391 | 9.08522 | 2952 ft | 170 kts | 76° |
| 2026-05-09 05:27 | 48.66709 | 9.10259 | 2718 ft | 169 kts | 75° |
| 2026-05-09 05:27 | 48.67023 | 9.11916 | 2463 ft | 159 kts | 75° |
| 2026-05-09 05:27 | 48.67319 | 9.13449 | 2230 ft | 143 kts | 75° |
| 2026-05-09 05:27 | 48.67580 | 9.14817 | 2052 ft | 134 kts | 75° |
| 2026-05-09 05:28 | 48.67836 | 9.16161 | 1886 ft | 132 kts | 74° |
| 2026-05-09 05:28 | 48.68089 | 9.17448 | 1705 ft | 125 kts | 74° |
| 2026-05-09 05:28 | 48.68327 | 9.18720 | 1556 ft | 125 kts | 74° |
| 2026-05-09 05:28 | 48.68567 | 9.19973 | 1376 ft | 124 kts | 73° |
| 2026-05-09 05:29 | 48.68796 | 9.21180 | 1261 ft | 112 kts | 73° |
| 2026-05-09 05:29 | 48.68958 | 9.22039 | 1233 ft | 60 kts | 73° |
| 2026-05-09 05:29 | 48.69031 | 9.22422 | 1225 ft | 25 kts | 74° |
| 2026-05-09 05:29 | 48.69094 | 9.22545 | 1223 ft | 14 kts | 355° |
| 2026-05-09 05:30 | 48.69194 | 9.22500 | 1225 ft | 13 kts | 320° |
| 2026-05-09 05:30 | 48.69190 | 9.22334 | 1227 ft | 19 kts | 254° |
| 2026-05-09 05:30 | 48.69143 | 9.22082 | 1232 ft | 27 kts | 254° |
| 2026-05-09 05:30 | 48.69095 | 9.21836 | 1239 ft | 22 kts | 254° |
| 2026-05-09 05:31 | 48.69054 | 9.21616 | 1246 ft | 19 kts | 254° |
| 2026-05-09 05:31 | 48.69023 | 9.21449 | 1252 ft | 14 kts | 253° |
| 2026-05-09 05:31 | 48.68993 | 9.21295 | 1256 ft | 15 kts | 253° |
| 2026-05-09 05:31 | 48.68958 | 9.21107 | 1262 ft | 21 kts | 253° |
| 2026-05-09 05:32 | 48.68913 | 9.20875 | 1270 ft | 21 kts | 253° |
| 2026-05-09 05:32 | 48.68925 | 9.20687 | 1275 ft | 17 kts | 310° |
| 2026-05-09 05:32 | 48.69000 | 9.20570 | 1278 ft | 13 kts | 314° |
| 2026-05-09 05:32 | 48.69057 | 9.20462 | 1282 ft | 15 kts | 283° |
| 2026-05-09 05:33 | 48.69038 | 9.20304 | 1286 ft | 11 kts | 254° |
| 2026-05-09 05:33 | 48.69008 | 9.20201 | 1290 ft | 8 kts | 197° |
| 2026-05-09 05:33 | 48.68952 | 9.20218 | 1288 ft | 3 kts | 163° |
| 2026-05-09 05:33 | 48.68951 | 9.20218 | 1288 ft | 0 kts | 163° |